createdAt,value
2019-02-23T00:01:25.062Z,44.55
2019-02-23T00:03:59.117Z,44.26
2019-02-23T00:09:13.352Z,43.18
2019-02-23T00:11:48.444Z,45.47
2019-02-23T00:14:22.379Z,42.46
2019-02-23T00:16:56.521Z,42.17
2019-02-23T00:19:29.890Z,39.46
2019-02-23T00:22:04.171Z,38.53
2019-02-23T00:24:39.474Z,37.27
2019-02-23T00:27:17.980Z,37.33
2019-02-23T00:30:00.037Z,37.54
2019-02-23T00:32:34.727Z,37.54
2019-02-23T00:35:09.456Z,37.17
2019-02-23T00:37:46.518Z,36.89
2019-02-23T00:40:21.212Z,37.30
2019-02-23T00:43:00.826Z,36.65
2019-02-23T00:45:46.292Z,37.00
2019-02-23T00:48:20.695Z,37.41
2019-02-23T00:50:56.719Z,36.52
2019-02-23T00:53:32.236Z,37.86
2019-02-23T00:56:05.729Z,36.41
2019-02-23T00:58:39.575Z,36.86
2019-02-23T01:01:13.935Z,36.45
2019-02-23T01:03:49.063Z,35.43
2019-02-23T01:06:23.659Z,35.28
2019-02-23T01:08:57.570Z,34.86
2019-02-23T01:11:32.067Z,35.23
2019-02-23T01:14:06.997Z,34.54
2019-02-23T01:16:42.003Z,34.26
2019-02-23T01:19:18.060Z,33.78
2019-02-23T01:21:51.927Z,34.82
2019-02-23T01:24:25.869Z,33.46
2019-02-23T01:27:02.207Z,34.23
2019-02-23T01:29:42.224Z,33.20
2019-02-23T01:32:16.865Z,31.12
2019-02-23T01:34:52.056Z,29.71
2019-02-23T01:37:26.857Z,30.89
2019-02-23T01:40:01.908Z,31.06
2019-02-23T01:42:35.754Z,30.35
2019-02-23T01:45:10.375Z,29.88
2019-02-23T01:47:44.644Z,29.27
2019-02-23T01:50:25.492Z,29.01
2019-02-23T01:53:00.812Z,29.38
2019-02-23T01:55:35.711Z,29.59
2019-02-23T01:58:10.663Z,28.98
2019-02-23T02:00:46.905Z,28.61
2019-02-23T02:03:22.967Z,30.32
2019-02-23T02:05:58.765Z,29.54
2019-02-23T02:08:33.569Z,28.75
2019-02-23T02:11:11.595Z,27.56
2019-02-23T02:13:48.422Z,27.68
2019-02-23T02:16:23.115Z,27.16
2019-02-23T02:18:58.455Z,28.05
2019-02-23T02:21:33.164Z,27.72
2019-02-23T02:24:07.644Z,28.40
2019-02-23T02:26:43.955Z,27.61
2019-02-23T02:29:17.808Z,28.31
2019-02-23T02:31:51.887Z,26.50
2019-02-23T02:34:26.068Z,26.25
2019-02-23T02:36:59.914Z,26.32
2019-02-23T02:39:34.115Z,26.35
2019-02-23T02:42:09.328Z,26.98
2019-02-23T02:44:44.023Z,26.37
2019-02-23T02:47:17.878Z,24.98
2019-02-23T02:49:51.976Z,23.31
2019-02-23T02:52:28.223Z,24.59
2019-02-23T02:55:02.407Z,23.96
2019-02-23T02:57:38.135Z,23.96
2019-02-23T03:00:14.111Z,24.93
2019-02-23T03:02:50.617Z,24.12
2019-02-23T03:05:24.516Z,23.90
2019-02-23T03:07:58.999Z,22.88
2019-02-23T03:10:34.175Z,23.27
2019-02-23T03:13:08.627Z,22.73
2019-02-23T03:15:44.611Z,23.13
2019-02-23T03:18:19.776Z,23.16
2019-02-23T03:20:53.936Z,23.49
2019-02-23T03:23:28.622Z,23.02
2019-02-23T03:26:05.290Z,23.01
2019-02-23T03:28:40.196Z,23.28
2019-02-23T03:31:14.927Z,22.39
2019-02-23T03:33:52.185Z,22.45
2019-02-23T03:36:30.831Z,22.93
2019-02-23T03:39:12.303Z,21.74
2019-02-23T03:41:52.772Z,22.11
2019-02-23T03:44:29.745Z,22.03
2019-02-23T03:47:05.344Z,20.69
2019-02-23T03:49:39.419Z,21.21
2019-02-23T03:52:13.856Z,21.26
2019-02-23T03:54:49.175Z,21.39
2019-02-23T03:57:25.905Z,21.78
2019-02-23T04:00:02.647Z,22.04
2019-02-23T04:02:37.636Z,22.12
2019-02-23T04:05:12.954Z,21.74
2019-02-23T04:07:48.040Z,22.24
2019-02-23T04:10:22.621Z,22.63
2019-02-23T04:12:57.094Z,22.16
2019-02-23T04:15:35.301Z,23.32
2019-02-23T04:18:11.788Z,22.66
2019-02-23T04:20:48.221Z,22.49
2019-02-23T04:23:22.494Z,22.30
2019-02-23T04:25:58.934Z,22.06
2019-02-23T04:28:33.521Z,21.61
2019-02-23T04:31:07.590Z,21.33
2019-02-23T04:33:42.220Z,21.24
2019-02-23T04:36:16.103Z,21.74
2019-02-23T04:38:50.029Z,21.41
2019-02-23T04:41:23.735Z,22.18
2019-02-23T04:43:58.958Z,21.31
2019-02-23T04:46:32.880Z,21.08
2019-02-23T04:49:06.795Z,21.10
2019-02-23T04:51:41.517Z,21.41
2019-02-23T04:54:15.879Z,21.88
2019-02-23T04:56:50.004Z,20.76
2019-02-23T04:59:24.364Z,21.05
2019-02-23T05:01:58.828Z,20.82
2019-02-23T05:04:33.667Z,21.15
2019-02-23T05:07:08.454Z,20.77
2019-02-23T05:09:42.889Z,20.62
2019-02-23T05:12:19.506Z,21.17
2019-02-23T05:14:54.193Z,20.37
2019-02-23T05:17:28.542Z,21.37
2019-02-23T05:20:04.626Z,20.88
2019-02-23T05:22:39.404Z,22.18
2019-02-23T05:25:13.980Z,20.69
2019-02-23T05:27:49.908Z,20.08
2019-02-23T05:30:25.051Z,21.03
2019-02-23T05:33:01.359Z,20.16
2019-02-23T05:35:35.603Z,20.91
2019-02-23T05:38:09.198Z,20.31
2019-02-23T05:40:44.736Z,20.62
2019-02-23T05:43:19.231Z,20.28
2019-02-23T05:45:54.191Z,20.49
2019-02-23T05:48:27.999Z,21.82
2019-02-23T05:51:01.891Z,20.47
2019-02-23T05:53:36.026Z,20.43
2019-02-23T05:56:13.900Z,20.42
2019-02-23T05:58:46.720Z,20.73
2019-02-23T06:01:22.631Z,20.77
2019-02-23T06:03:57.780Z,20.48
2019-02-23T06:06:32.906Z,20.60
2019-02-23T06:09:09.357Z,20.73
2019-02-23T06:11:44.799Z,20.67
2019-02-23T06:14:26.664Z,20.96
2019-02-23T06:17:03.906Z,20.50
2019-02-23T06:19:38.473Z,21.08
2019-02-23T06:22:14.890Z,20.70
2019-02-23T06:24:52.524Z,20.42
2019-02-23T06:27:30.949Z,20.78
2019-02-23T06:30:06.247Z,20.90
2019-02-23T06:32:43.379Z,20.86
2019-02-23T06:35:18.510Z,20.73
2019-02-23T06:37:53.823Z,21.59
2019-02-23T06:40:32.397Z,21.22
2019-02-23T06:43:09.074Z,20.80
2019-02-23T06:45:46.970Z,20.86
2019-02-23T06:48:21.989Z,21.29
2019-02-23T06:50:58.880Z,20.96
2019-02-23T06:53:34.858Z,21.56
2019-02-23T06:56:09.656Z,21.14
2019-02-23T06:58:44.808Z,21.10
2019-02-23T07:01:21.086Z,21.78
2019-02-23T07:03:57.355Z,21.63
2019-02-23T07:06:32.955Z,21.18
2019-02-23T07:09:07.614Z,21.26
2019-02-23T07:11:43.261Z,21.46
2019-02-23T07:14:18.463Z,21.33
2019-02-23T07:16:53.788Z,21.75
2019-02-23T07:19:30.617Z,22.41
2019-02-23T07:22:15.182Z,22.18
2019-02-23T07:24:46.830Z,22.19
2019-02-23T07:27:21.774Z,22.29
2019-02-23T07:29:58.675Z,21.66
2019-02-23T07:32:33.932Z,22.58
2019-02-23T07:35:08.887Z,21.95
2019-02-23T07:37:42.757Z,22.05
2019-02-23T07:40:19.740Z,22.89
2019-02-23T07:42:55.566Z,22.34
2019-02-23T07:45:29.525Z,22.27
2019-02-23T07:48:04.638Z,22.50
2019-02-23T07:50:40.024Z,22.22
2019-02-23T07:53:15.964Z,22.77
2019-02-23T07:55:57.349Z,22.39
2019-02-23T07:58:33.826Z,22.52
2019-02-23T08:01:09.057Z,22.20
2019-02-23T08:03:44.136Z,24.37
2019-02-23T08:06:21.886Z,23.78
2019-02-23T08:08:57.107Z,22.70
2019-02-23T08:11:32.607Z,23.24
2019-02-23T08:14:07.125Z,22.68
2019-02-23T08:16:42.576Z,22.94
2019-02-23T08:19:17.683Z,24.70
2019-02-23T08:21:51.617Z,22.96
2019-02-23T08:24:26.009Z,23.43
2019-02-23T08:27:01.217Z,23.34
2019-02-23T08:29:35.207Z,23.84
2019-02-23T08:32:08.928Z,23.85
2019-02-23T08:34:43.140Z,24.20
2019-02-23T08:37:17.237Z,24.20
2019-02-23T08:39:51.539Z,24.40
2019-02-23T08:42:25.477Z,24.48
2019-02-23T08:45:07.004Z,24.57
2019-02-23T08:47:41.057Z,24.64
2019-02-23T08:50:19.038Z,24.69
2019-02-23T08:52:53.517Z,24.84
2019-02-23T08:55:27.903Z,25.56
2019-02-23T08:58:02.477Z,25.79
2019-02-23T09:00:38.409Z,26.65
2019-02-23T09:03:13.358Z,26.52
2019-02-23T09:05:47.146Z,25.16
2019-02-23T09:08:23.174Z,24.77
2019-02-23T09:10:57.587Z,25.83
2019-02-23T09:13:32.507Z,25.17
2019-02-23T09:16:06.712Z,25.28
2019-02-23T09:18:41.574Z,24.83
2019-02-23T09:21:15.772Z,25.06
2019-02-23T09:23:50.419Z,25.15
2019-02-23T09:26:25.568Z,25.38
2019-02-23T09:29:01.909Z,25.20
2019-02-23T09:31:36.580Z,25.69
2019-02-23T09:34:10.639Z,24.96
2019-02-23T09:36:46.316Z,25.73
2019-02-23T09:39:20.235Z,25.43
2019-02-23T09:42:07.025Z,25.01
2019-02-23T09:44:32.599Z,26.81
2019-02-23T09:47:06.358Z,26.23
2019-02-23T09:49:40.271Z,26.12
2019-02-23T09:52:18.885Z,25.99
2019-02-23T09:54:52.635Z,26.34
2019-02-23T09:57:26.518Z,28.40
2019-02-23T10:00:01.449Z,27.36
2019-02-23T10:02:34.686Z,26.56
2019-02-23T10:05:09.361Z,27.81
2019-02-23T10:07:43.087Z,27.02
2019-02-23T10:10:16.956Z,27.03
2019-02-23T10:12:50.669Z,27.60
2019-02-23T10:15:24.979Z,27.57
2019-02-23T10:17:59.524Z,27.65
2019-02-23T10:20:45.937Z,27.53
2019-02-23T10:23:24.022Z,27.37
2019-02-23T10:25:58.529Z,28.55
2019-02-23T10:28:36.100Z,27.64
2019-02-23T10:31:11.442Z,27.69
2019-02-23T10:33:51.348Z,27.43
2019-02-23T10:36:26.677Z,28.72
2019-02-23T10:39:08.378Z,28.54
2019-02-23T10:41:44.992Z,29.27
2019-02-23T10:44:21.129Z,27.98
2019-02-23T10:46:56.546Z,29.83
2019-02-23T10:49:31.390Z,29.44
2019-02-23T10:52:06.949Z,29.18
2019-02-23T10:54:41.814Z,28.62
2019-02-23T10:57:17.823Z,28.81
2019-02-23T11:00:01.090Z,28.98
2019-02-23T11:02:39.361Z,29.37
2019-02-23T11:05:15.569Z,29.39
2019-02-23T11:07:55.208Z,29.10
2019-02-23T11:10:30.855Z,29.42
2019-02-23T11:13:10.474Z,29.62
2019-02-23T11:15:47.942Z,28.85
2019-02-23T11:18:24.567Z,29.26
2019-02-23T11:20:59.600Z,30.45
2019-02-23T11:23:43.943Z,29.39
2019-02-23T11:26:11.740Z,29.63
2019-02-23T11:28:49.771Z,30.28
2019-02-23T11:31:22.722Z,29.45
2019-02-23T11:33:57.537Z,28.43
2019-02-23T11:36:31.784Z,29.25
2019-02-23T11:39:06.813Z,29.93
2019-02-23T11:41:44.163Z,29.62
2019-02-23T11:44:19.240Z,28.93
2019-02-23T11:47:01.013Z,29.50
2019-02-23T11:49:31.260Z,29.75
2019-02-23T11:52:08.981Z,29.30
2019-02-23T11:54:44.083Z,28.96
2019-02-23T11:57:18.678Z,29.31
2019-02-23T11:59:54.261Z,29.31
2019-02-23T12:02:52.089Z,29.45
2019-02-23T12:05:24.474Z,28.67
2019-02-23T12:08:01.831Z,29.59
2019-02-23T12:10:38.361Z,29.93
2019-02-23T12:13:16.982Z,29.02
2019-02-23T12:15:54.887Z,29.39
2019-02-23T12:18:35.453Z,28.81
2019-02-23T12:21:14.391Z,28.76
2019-02-23T12:23:53.864Z,28.83
2019-02-23T12:26:31.514Z,29.29
2019-02-23T12:29:13.731Z,28.81
2019-02-23T12:31:50.158Z,29.04
2019-02-23T12:34:34.737Z,28.68
2019-02-23T12:37:10.733Z,29.03
2019-02-23T12:39:46.901Z,28.82
2019-02-23T12:42:28.258Z,28.81
2019-02-23T12:45:09.330Z,28.92
2019-02-23T12:47:45.012Z,29.27
2019-02-23T12:50:29.742Z,29.13
2019-02-23T12:53:06.395Z,28.98
2019-02-23T12:55:41.901Z,29.78
2019-02-23T12:58:19.460Z,29.39
2019-02-23T13:00:57.889Z,29.05
2019-02-23T13:03:33.322Z,28.88
2019-02-23T13:06:10.228Z,28.54
2019-02-23T13:09:21.847Z,28.93
2019-02-23T13:12:05.732Z,28.64
2019-02-23T13:15:01.083Z,28.68
2019-02-23T13:17:52.902Z,28.81
2019-02-23T13:20:50.313Z,28.74
2019-02-23T13:27:10.847Z,29.32
2019-02-23T13:30:17.106Z,29.16
2019-02-23T13:33:13.457Z,30.14
2019-02-23T13:35:57.245Z,29.63
2019-02-23T13:38:56.200Z,29.44
2019-02-23T13:41:32.845Z,29.30
2019-02-23T13:44:19.442Z,29.86
2019-02-23T13:57:14.015Z,29.95
2019-02-23T13:59:56.332Z,29.94
2019-02-23T14:03:10.975Z,29.43
2019-02-23T14:05:55.568Z,30.01
2019-02-23T14:09:00.401Z,29.81
2019-02-23T14:11:57.717Z,30.02
2019-02-23T14:14:42.186Z,29.41
2019-02-23T14:17:24.595Z,30.71
2019-02-23T14:20:19.306Z,29.99
2019-02-23T14:23:10.559Z,30.25
2019-02-23T14:26:05.003Z,30.08
2019-02-23T14:29:32.299Z,29.90
2019-02-23T14:32:15.929Z,29.03
2019-02-23T14:35:16.755Z,29.44
2019-02-23T14:38:05.585Z,30.27
2019-02-23T14:40:50.250Z,30.68
2019-02-23T14:43:56.734Z,29.05
2019-02-23T14:46:50.425Z,29.26
2019-02-23T14:50:03.012Z,29.01
2019-02-23T14:52:58.538Z,28.66
2019-02-23T14:55:57.757Z,28.38
2019-02-23T14:58:50.886Z,28.53
2019-02-23T15:01:34.017Z,28.43
2019-02-23T15:04:41.792Z,28.56
2019-02-23T15:07:22.421Z,27.84
2019-02-23T15:10:16.679Z,27.90
2019-02-23T15:13:33.861Z,28.04
2019-02-23T15:16:53.402Z,27.51
2019-02-23T15:19:55.253Z,27.81
2019-02-23T15:22:38.476Z,28.33
2019-02-23T15:25:45.235Z,28.00
2019-02-23T15:28:59.287Z,28.24
2019-02-23T15:32:00.509Z,28.59
2019-02-23T15:35:11.491Z,28.19
2019-02-23T15:38:07.607Z,28.05
2019-02-23T15:41:13.137Z,27.68
2019-02-23T15:44:10.458Z,28.73
2019-02-23T15:47:11.709Z,28.30
2019-02-23T15:49:46.251Z,28.91
2019-02-23T15:52:21.971Z,29.09
2019-02-23T15:54:56.105Z,29.51
2019-02-23T15:57:31.426Z,29.79
2019-02-23T16:00:05.536Z,30.53
2019-02-23T16:02:39.699Z,31.14
2019-02-23T16:05:16.284Z,30.38
2019-02-23T16:07:50.393Z,30.55
2019-02-23T16:10:26.740Z,30.50
2019-02-23T16:13:02.177Z,30.54
2019-02-23T16:15:40.229Z,30.41
2019-02-23T16:18:14.641Z,30.78
2019-02-23T16:20:52.175Z,30.54
2019-02-23T16:23:34.926Z,30.93
2019-02-23T16:26:06.713Z,30.61
2019-02-23T16:28:44.102Z,30.73
2019-02-23T16:31:18.780Z,30.90
2019-02-23T16:33:54.407Z,31.13
2019-02-23T16:36:29.694Z,30.50
2019-02-23T16:39:04.503Z,30.32
2019-02-23T16:41:43.121Z,30.63
2019-02-23T16:44:17.700Z,30.82
2019-02-23T16:46:52.731Z,30.49
2019-02-23T16:49:27.797Z,31.31
2019-02-23T16:52:02.002Z,30.44
2019-02-23T16:54:36.387Z,30.95
2019-02-23T16:57:18.913Z,30.95
2019-02-23T16:59:53.404Z,31.00
2019-02-23T17:02:27.959Z,30.80
2019-02-23T17:05:04.770Z,30.81
2019-02-23T17:07:42.343Z,31.63
2019-02-23T17:10:16.677Z,30.93
2019-02-23T17:12:52.188Z,31.54
2019-02-23T17:15:28.904Z,31.26
2019-02-23T17:18:03.320Z,31.89
2019-02-23T17:20:37.170Z,31.26
2019-02-23T17:23:10.998Z,31.71
2019-02-23T17:25:46.503Z,31.72
2019-02-23T17:28:22.305Z,32.11
2019-02-23T17:30:56.543Z,31.89
2019-02-23T17:33:30.332Z,32.03
2019-02-23T17:36:04.073Z,32.11
2019-02-23T17:38:37.620Z,32.79
2019-02-23T17:41:12.664Z,32.18
2019-02-23T17:43:46.582Z,32.24
2019-02-23T17:46:20.227Z,33.33
2019-02-23T17:48:53.918Z,32.53
2019-02-23T17:51:27.556Z,32.87
2019-02-23T17:54:02.352Z,32.95
2019-02-23T17:56:35.917Z,33.08
2019-02-23T17:59:09.439Z,33.35
2019-02-23T18:01:43.345Z,33.28
2019-02-23T18:04:25.064Z,32.80
2019-02-23T18:07:01.255Z,33.63
2019-02-23T18:09:36.223Z,33.54
2019-02-23T18:12:10.441Z,33.33
2019-02-23T18:14:45.251Z,33.67
2019-02-23T18:17:18.918Z,34.10
2019-02-23T18:19:53.361Z,33.31
2019-02-23T18:22:28.334Z,34.43
2019-02-23T18:25:02.058Z,33.91
2019-02-23T18:27:35.610Z,33.52
2019-02-23T18:30:14.066Z,33.75
2019-02-23T18:32:48.148Z,33.58
2019-02-23T18:35:22.400Z,33.17
2019-02-23T18:37:56.513Z,33.34
2019-02-23T18:40:31.175Z,33.54
2019-02-23T18:43:06.142Z,33.72
2019-02-23T18:45:47.202Z,33.76
2019-02-23T18:48:15.312Z,35.17
2019-02-23T18:50:49.260Z,34.61
2019-02-23T18:53:23.918Z,34.10
2019-02-23T18:55:57.398Z,34.15
2019-02-23T18:58:33.512Z,34.26
2019-02-23T19:01:07.874Z,34.73
2019-02-23T19:03:41.680Z,34.52
2019-02-23T19:06:15.360Z,34.59
2019-02-23T19:08:49.024Z,34.58
2019-02-23T19:11:24.333Z,34.88
2019-02-23T19:13:58.258Z,35.21
2019-02-23T19:16:32.702Z,35.09
2019-02-23T19:19:06.248Z,35.73
2019-02-23T19:21:40.015Z,35.95
2019-02-23T19:24:13.649Z,35.37
2019-02-23T19:26:47.234Z,35.37
2019-02-23T19:29:21.684Z,35.59
2019-02-23T19:31:55.143Z,35.63
2019-02-23T19:34:28.845Z,36.25
2019-02-23T19:37:02.422Z,35.89
2019-02-23T19:39:36.025Z,35.83
2019-02-23T19:42:09.750Z,35.78
2019-02-23T19:44:43.719Z,36.34
2019-02-23T19:47:17.471Z,36.63
2019-02-23T19:49:52.746Z,36.71
2019-02-23T19:52:26.865Z,36.44
2019-02-23T19:55:01.707Z,36.44
2019-02-23T19:57:36.417Z,36.09
2019-02-23T20:00:11.757Z,36.48
2019-02-23T20:03:05.060Z,36.20
2019-02-23T20:05:38.860Z,36.46
2019-02-23T20:08:12.630Z,36.81
2019-02-23T20:10:47.054Z,36.46
2019-02-23T20:13:21.502Z,36.18
2019-02-23T20:15:55.917Z,36.67
2019-02-23T20:18:33.264Z,37.21
2019-02-23T20:21:07.453Z,36.79
2019-02-23T20:23:43.129Z,37.16
2019-02-23T20:26:17.164Z,37.07
2019-02-23T20:28:50.981Z,37.18
2019-02-23T20:31:26.206Z,37.17
2019-02-23T20:34:00.006Z,37.09
2019-02-23T20:36:35.032Z,37.45
2019-02-23T20:39:10.336Z,37.21
2019-02-23T20:41:44.114Z,37.80
2019-02-23T20:44:19.163Z,37.44
2019-02-23T20:46:52.903Z,37.68
2019-02-23T20:49:26.558Z,37.78
2019-02-23T20:52:06.198Z,37.50
2019-02-23T20:54:39.834Z,37.50
2019-02-23T20:57:13.937Z,37.90
2019-02-23T20:59:48.084Z,37.71
2019-02-23T21:02:27.399Z,38.26
2019-02-23T21:05:03.078Z,38.23
2019-02-23T21:07:36.688Z,38.02
2019-02-23T21:10:13.165Z,38.04
2019-02-23T21:12:48.909Z,38.28
2019-02-23T21:15:22.885Z,38.20
2019-02-23T21:17:56.659Z,38.67
2019-02-23T21:20:30.749Z,38.54
2019-02-23T21:23:04.482Z,38.34
2019-02-23T21:25:38.122Z,37.93
2019-02-23T21:28:12.717Z,38.58
2019-02-23T21:30:47.609Z,38.16
2019-02-23T21:33:22.494Z,38.63
2019-02-23T21:35:57.919Z,38.31
2019-02-23T21:38:31.696Z,38.36
2019-02-23T21:41:05.670Z,38.23
2019-02-23T21:43:40.027Z,38.67
2019-02-23T21:46:13.988Z,38.59
2019-02-23T21:48:47.673Z,38.63
2019-02-23T21:51:21.644Z,38.80
2019-02-23T21:53:57.025Z,38.73
2019-02-23T21:56:31.374Z,38.38
2019-02-23T21:59:05.241Z,38.65
2019-02-23T22:01:38.801Z,39.01
2019-02-23T22:04:13.450Z,39.10
2019-02-23T22:06:49.100Z,39.08
2019-02-23T22:09:23.111Z,38.80
2019-02-23T22:11:58.307Z,38.61
2019-02-23T22:14:32.451Z,38.98
2019-02-23T22:17:06.116Z,39.37
2019-02-23T22:19:39.917Z,38.95
2019-02-23T22:22:17.947Z,39.13
2019-02-23T22:24:51.739Z,38.65
2019-02-23T22:27:31.124Z,38.75
2019-02-23T22:30:00.578Z,38.89
2019-02-23T22:32:35.718Z,39.26
2019-02-23T22:35:09.461Z,40.01
2019-02-23T22:37:43.471Z,39.31
2019-02-23T22:40:17.308Z,39.42
2019-02-23T22:42:51.238Z,39.15
2019-02-23T22:45:26.483Z,39.34
2019-02-23T22:48:00.241Z,39.27
2019-02-23T22:50:35.740Z,39.08
2019-02-23T22:53:08.986Z,39.71
2019-02-23T22:55:43.494Z,38.84
2019-02-23T22:58:17.333Z,38.86
2019-02-23T23:00:51.226Z,38.88
2019-02-23T23:03:25.207Z,38.85
2019-02-23T23:05:59.196Z,38.99
2019-02-23T23:08:32.934Z,38.57
2019-02-23T23:11:06.838Z,38.51
2019-02-23T23:13:40.391Z,38.77
2019-02-23T23:16:14.250Z,38.35
2019-02-23T23:18:47.952Z,37.78
2019-02-23T23:21:22.212Z,38.03
2019-02-23T23:23:56.322Z,39.03
2019-02-23T23:26:30.088Z,37.83
2019-02-23T23:29:03.855Z,37.34
2019-02-23T23:31:37.665Z,37.04
2019-02-23T23:34:12.838Z,36.98
2019-02-23T23:36:46.480Z,37.01
2019-02-23T23:39:20.597Z,37.09
2019-02-23T23:41:55.915Z,37.85
2019-02-23T23:44:29.772Z,36.91
2019-02-23T23:47:03.547Z,37.07
2019-02-23T23:49:37.547Z,36.69
2019-02-23T23:52:11.336Z,36.46
2019-02-23T23:54:45.199Z,36.34
2019-02-23T23:57:19.092Z,36.54
2019-02-23T23:59:53.263Z,36.43
